Time;durP1;ratioP1;P1;durP2;ratioP2;P2;SDS_P1;SDS_P2;PMS_P1;PMS_P2;Temp;Humidity;BMP_temperature;BMP_pressure;BME280_temperature;BME280_humidity;BME280_pressure;Samples;Min_cycle;Max_cycle;Signal;HPM_P1;HPM_P2
2024/01/31 00:01:51;;;;;;;14.37;11.57;;;;;;;;;;5020775;28;20181;-54
2024/01/31 00:04:17;;;;;;;14.40;11.13;;;;;;;;;;5021357;28;20182;-54
2024/01/31 00:06:48;;;;;;;12.47;11.17;;;;;;;;;;5022577;28;20213;-54
2024/01/31 00:09:14;;;;;;;12.80;11.23;;;;;;;;;;5023390;28;20205;-54
2024/01/31 00:11:40;;;;;;;11.67;10.20;;;;;;;;;;5015988;28;20324;-54
2024/01/31 00:14:07;;;;;;;12.63;11.13;;;;;;;;;;5024674;28;20200;-54
2024/01/31 00:16:33;;;;;;;13.40;10.80;;;;;;;;;;5019211;28;20210;-54
2024/01/31 00:18:59;;;;;;;11.53;10.17;;;;;;;;;;5022452;28;20606;-54
2024/01/31 00:21:25;;;;;;;12.23;9.80;;;;;;;;;;5022743;28;20189;-49
2024/01/31 00:23:51;;;;;;;10.87;9.50;;;;;;;;;;5025357;28;20170;-51
2024/01/31 00:26:17;;;;;;;11.50;10.07;;;;;;;;;;5022466;28;20669;-52
2024/01/31 00:28:43;;;;;;;10.60;9.50;;;;;;;;;;5018593;28;20282;-51
2024/01/31 00:31:12;;;;;;;10.10;9.10;;;;;;;;;;5013896;28;20304;-51
2024/01/31 00:33:39;;;;;;;10.67;9.33;;;;;;;;;;5019001;28;20221;-49
2024/01/31 00:36:05;;;;;;;11.80;10.00;;;;;;;;;;5018382;28;20206;-50
2024/01/31 00:38:31;;;;;;;11.43;9.37;;;;;;;;;;5018813;28;20178;-50
2024/01/31 00:40:57;;;;;;;9.87;8.87;;;;;;;;;;5027796;28;20181;-50
2024/01/31 00:43:23;;;;;;;10.23;9.17;;;;;;;;;;5029485;28;20743;-51
2024/01/31 00:45:49;;;;;;;10.53;8.90;;;;;;;;;;5026997;28;20173;-49
2024/01/31 00:48:16;;;;;;;10.07;8.30;;;;;;;;;;5019666;28;20317;-50
2024/01/31 00:50:42;;;;;;;9.83;7.87;;;;;;;;;;5028668;28;20194;-49
2024/01/31 00:53:08;;;;;;;10.43;8.47;;;;;;;;;;5024071;28;20614;-49
2024/01/31 00:55:34;;;;;;;9.83;8.83;;;;;;;;;;5025912;28;20189;-50
2024/01/31 00:58:00;;;;;;;10.40;8.73;;;;;;;;;;5020767;28;20171;-50
2024/01/31 01:00:26;;;;;;;11.97;9.23;;;;;;;;;;5021647;28;20503;-50
2024/01/31 01:02:52;;;;;;;11.43;8.03;;;;;;;;;;5027500;28;20177;-54
2024/01/31 01:05:20;;;;;;;9.53;8.53;;;;;;;;;;5023982;28;20241;-51
2024/01/31 01:07:46;;;;;;;10.57;8.57;;;;;;;;;;5025838;28;20672;-49
2024/01/31 01:10:13;;;;;;;11.73;8.90;;;;;;;;;;5014815;28;20178;-49
2024/01/31 01:12:39;;;;;;;15.17;8.63;;;;;;;;;;5022808;28;20181;-50
2024/01/31 01:15:05;;;;;;;9.03;7.83;;;;;;;;;;5022988;28;20189;-51
2024/01/31 01:17:32;;;;;;;9.87;8.37;;;;;;;;;;5023559;28;20193;-51
2024/01/31 01:19:58;;;;;;;9.67;8.07;;;;;;;;;;5019565;28;20200;-50
2024/01/31 01:22:24;;;;;;;10.43;8.17;;;;;;;;;;5023051;28;20182;-50
2024/01/31 01:24:50;;;;;;;10.20;7.83;;;;;;;;;;5021372;28;20186;-51
2024/01/31 01:27:16;;;;;;;9.93;8.33;;;;;;;;;;5017280;28;20167;-52
2024/01/31 01:29:42;;;;;;;11.77;8.77;;;;;;;;;;5020583;28;20865;-51
2024/01/31 01:32:08;;;;;;;9.37;7.90;;;;;;;;;;5022397;28;20181;-49
2024/01/31 01:34:34;;;;;;;8.97;6.87;;;;;;;;;;5024006;28;20182;-50
2024/01/31 01:37:00;;;;;;;8.40;6.93;;;;;;;;;;5016550;28;20681;-51
2024/01/31 01:39:29;;;;;;;9.33;6.93;;;;;;;;;;5020803;28;20247;-51
2024/01/31 01:41:56;;;;;;;9.17;6.63;;;;;;;;;;5026745;28;20281;-50
2024/01/31 01:44:22;;;;;;;7.97;6.87;;;;;;;;;;5019024;28;20193;-50
2024/01/31 01:46:48;;;;;;;7.97;6.17;;;;;;;;;;5020058;28;20226;-54
2024/01/31 01:49:14;;;;;;;8.67;6.63;;;;;;;;;;5022948;28;20177;-51
2024/01/31 01:51:41;;;;;;;11.70;6.27;;;;;;;;;;5018780;28;20186;-51
2024/01/31 01:54:12;;;;;;;9.30;5.40;;;;;;;;;;5019257;28;20225;-50
2024/01/31 01:56:41;;;;;;;7.70;5.40;;;;;;;;;;5023465;28;20209;-50
2024/01/31 01:59:07;;;;;;;10.47;5.90;;;;;;;;;;5020793;28;20276;-50
2024/01/31 02:01:33;;;;;;;6.97;5.33;;;;;;;;;;5026650;28;20269;-50
2024/01/31 02:03:59;;;;;;;7.03;5.63;;;;;;;;;;5018652;28;21069;-54
2024/01/31 02:06:25;;;;;;;8.63;4.70;;;;;;;;;;5019209;28;20176;-54
2024/01/31 02:08:52;;;;;;;6.97;4.70;;;;;;;;;;5017432;28;20217;-54
2024/01/31 02:11:18;;;;;;;5.47;4.63;;;;;;;;;;5016142;28;20178;-54
2024/01/31 02:13:44;;;;;;;5.50;4.53;;;;;;;;;;5018475;28;20175;-54
2024/01/31 02:16:10;;;;;;;6.37;4.43;;;;;;;;;;5018685;28;20296;-54
2024/01/31 02:18:36;;;;;;;6.63;4.30;;;;;;;;;;5026275;28;20212;-54
2024/01/31 02:21:02;;;;;;;7.17;4.47;;;;;;;;;;5024171;28;20606;-54
2024/01/31 02:23:28;;;;;;;6.50;3.87;;;;;;;;;;5020918;28;20259;-54
2024/01/31 02:25:54;;;;;;;7.73;4.13;;;;;;;;;;5025980;28;20348;-54
2024/01/31 02:28:20;;;;;;;7.47;4.20;;;;;;;;;;5019352;28;20599;-53
2024/01/31 02:30:47;;;;;;;5.57;4.20;;;;;;;;;;5022104;28;20617;-54
2024/01/31 02:33:13;;;;;;;5.40;3.40;;;;;;;;;;5028962;28;20660;-54
2024/01/31 02:35:39;;;;;;;5.90;3.70;;;;;;;;;;5025643;28;20189;-54
2024/01/31 02:38:05;;;;;;;4.10;3.30;;;;;;;;;;5025906;28;20653;-54
2024/01/31 02:40:31;;;;;;;4.37;3.97;;;;;;;;;;5017910;28;20174;-54
2024/01/31 02:42:58;;;;;;;3.50;3.20;;;;;;;;;;5023226;28;20206;-54
2024/01/31 02:45:24;;;;;;;6.97;4.07;;;;;;;;;;5020062;28;20194;-54
2024/01/31 02:47:50;;;;;;;6.77;3.27;;;;;;;;;;5017859;28;20270;-54
2024/01/31 02:50:16;;;;;;;5.57;3.67;;;;;;;;;;5022824;28;20181;-53
2024/01/31 02:52:43;;;;;;;6.27;3.60;;;;;;;;;;5022195;28;20185;-54
2024/01/31 02:55:09;;;;;;;4.03;3.30;;;;;;;;;;5017763;28;20534;-54
2024/01/31 02:57:35;;;;;;;5.60;3.57;;;;;;;;;;5011621;28;20311;-54
2024/01/31 03:00:04;;;;;;;3.50;3.00;;;;;;;;;;5020894;28;20931;-54
2024/01/31 03:02:30;;;;;;;7.20;3.50;;;;;;;;;;5024529;28;20189;-54
2024/01/31 03:04:56;;;;;;;4.27;3.30;;;;;;;;;;5019809;28;20518;-54
2024/01/31 03:07:22;;;;;;;7.10;3.85;;;;;;;;;;5020684;28;20472;-54
2024/01/31 03:09:48;;;;;;;6.87;3.93;;;;;;;;;;4996149;28;20178;-54
2024/01/31 03:12:15;;;;;;;5.60;3.90;;;;;;;;;;5019639;28;20502;-54
2024/01/31 03:14:41;;;;;;;4.73;3.60;;;;;;;;;;5016554;28;20659;-54
2024/01/31 03:17:07;;;;;;;7.20;3.40;;;;;;;;;;5021321;28;20207;-54
2024/01/31 03:19:33;;;;;;;3.80;3.20;;;;;;;;;;5017150;28;20263;-54
2024/01/31 03:21:59;;;;;;;5.03;3.27;;;;;;;;;;5018631;28;20634;-54
2024/01/31 03:24:25;;;;;;;6.40;3.67;;;;;;;;;;5017974;28;20656;-53
2024/01/31 03:26:51;;;;;;;5.37;3.57;;;;;;;;;;5018838;28;20214;-54
2024/01/31 03:29:18;;;;;;;4.87;3.10;;;;;;;;;;5020587;28;20178;-54
2024/01/31 03:31:44;;;;;;;3.50;3.20;;;;;;;;;;5011465;28;20233;-54
2024/01/31 03:34:10;;;;;;;4.70;2.87;;;;;;;;;;5015685;28;20189;-54
2024/01/31 03:36:36;;;;;;;5.43;3.27;;;;;;;;;;5027405;28;20202;-54
2024/01/31 03:39:02;;;;;;;4.70;2.90;;;;;;;;;;5022762;28;20182;-54
2024/01/31 03:41:29;;;;;;;4.17;3.07;;;;;;;;;;5022152;28;20185;-54
2024/01/31 03:43:56;;;;;;;5.17;3.00;;;;;;;;;;5019809;28;20194;-54
2024/01/31 03:46:22;;;;;;;5.17;3.03;;;;;;;;;;5024236;28;20210;-54
2024/01/31 03:48:48;;;;;;;3.17;2.77;;;;;;;;;;5027905;28;20513;-54
2024/01/31 03:51:20;;;;;;;5.43;2.80;;;;;;;;;;5025773;28;20182;-54
2024/01/31 03:53:49;;;;;;;3.83;2.80;;;;;;;;;;5022080;28;20696;-54
2024/01/31 03:56:16;;;;;;;7.37;3.87;;;;;;;;;;5020923;28;20297;-54
2024/01/31 03:58:42;;;;;;;2.77;2.47;;;;;;;;;;5028778;28;20553;-54
2024/01/31 04:01:09;;;;;;;4.07;3.37;;;;;;;;;;5027966;28;20193;-54
2024/01/31 04:03:36;;;;;;;5.27;2.67;;;;;;;;;;5030168;28;20169;-54
2024/01/31 04:06:02;;;;;;;5.67;2.83;;;;;;;;;;5019098;28;20634;-54
2024/01/31 04:08:29;;;;;;;6.63;3.00;;;;;;;;;;5017492;28;20194;-54
2024/01/31 04:10:55;;;;;;;4.90;3.07;;;;;;;;;;5015743;28;20182;-54
2024/01/31 04:13:21;;;;;;;5.20;2.60;;;;;;;;;;5020581;28;20192;-54
2024/01/31 04:15:47;;;;;;;4.27;3.10;;;;;;;;;;5021905;28;20188;-53
2024/01/31 04:18:13;;;;;;;3.97;3.57;;;;;;;;;;5023972;28;20521;-54
2024/01/31 04:20:39;;;;;;;3.83;2.73;;;;;;;;;;5023395;28;20626;-54
2024/01/31 04:23:05;;;;;;;5.70;3.37;;;;;;;;;;5019406;28;20510;-53
2024/01/31 04:25:31;;;;;;;4.47;3.07;;;;;;;;;;5021063;28;20179;-53
2024/01/31 04:27:58;;;;;;;3.87;2.77;;;;;;;;;;5026610;28;20206;-53
2024/01/31 04:30:24;;;;;;;3.03;2.73;;;;;;;;;;5025715;28;20646;-53
2024/01/31 04:32:50;;;;;;;3.50;2.30;;;;;;;;;;5018923;28;20233;-53
2024/01/31 04:35:16;;;;;;;3.67;2.60;;;;;;;;;;5024318;28;20490;-53
2024/01/31 04:37:42;;;;;;;5.07;3.10;;;;;;;;;;5019828;28;20674;-53
2024/01/31 04:40:08;;;;;;;5.87;3.43;;;;;;;;;;5005928;28;20212;-53
2024/01/31 04:42:34;;;;;;;4.67;3.17;;;;;;;;;;5025266;28;20220;-53
2024/01/31 04:45:01;;;;;;;3.37;2.63;;;;;;;;;;5022160;28;20179;-53
2024/01/31 04:47:27;;;;;;;3.67;2.63;;;;;;;;;;5015902;28;20222;-53
2024/01/31 04:49:55;;;;;;;3.50;3.07;;;;;;;;;;5017516;28;20189;-53
2024/01/31 04:52:21;;;;;;;3.60;2.60;;;;;;;;;;5023014;28;20233;-53
2024/01/31 04:54:47;;;;;;;4.60;3.17;;;;;;;;;;5025097;28;20552;-53
2024/01/31 04:57:13;;;;;;;2.67;2.43;;;;;;;;;;5024731;28;20957;-53
2024/01/31 04:59:40;;;;;;;4.57;2.63;;;;;;;;;;5018259;28;20720;-53
2024/01/31 05:02:06;;;;;;;3.93;2.47;;;;;;;;;;5021887;28;20201;-53
2024/01/31 05:04:32;;;;;;;5.70;3.03;;;;;;;;;;5024251;28;20174;-54
2024/01/31 05:06:58;;;;;;;5.00;2.70;;;;;;;;;;5024997;28;20669;-53
2024/01/31 05:09:24;;;;;;;5.10;2.73;;;;;;;;;;5021908;28;20641;-53
2024/01/31 05:11:50;;;;;;;2.70;2.50;;;;;;;;;;5019887;28;20193;-53
2024/01/31 05:14:17;;;;;;;3.80;2.37;;;;;;;;;;5020917;28;20228;-53
2024/01/31 05:16:43;;;;;;;3.57;2.80;;;;;;;;;;5017922;28;20678;-53
2024/01/31 05:19:11;;;;;;;3.83;2.60;;;;;;;;;;5027428;28;20307;-53
2024/01/31 05:21:47;;;;;;;2.83;2.53;;;;;;;;;;5018519;28;20190;-53
2024/01/31 05:24:14;;;;;;;3.77;2.77;;;;;;;;;;5018344;28;20760;-53
2024/01/31 05:26:40;;;;;;;4.40;3.00;;;;;;;;;;5022261;28;20177;-53
2024/01/31 05:29:06;;;;;;;3.60;2.70;;;;;;;;;;5012439;28;20179;-53
2024/01/31 05:31:32;;;;;;;3.10;2.50;;;;;;;;;;5023198;28;20190;-53
2024/01/31 05:33:58;;;;;;;2.57;2.37;;;;;;;;;;5020275;28;20232;-61
2024/01/31 05:36:24;;;;;;;3.47;3.13;;;;;;;;;;5023505;28;20669;-62
2024/01/31 05:38:51;;;;;;;3.23;2.17;;;;;;;;;;5020939;28;20174;-61
2024/01/31 05:41:17;;;;;;;3.60;2.57;;;;;;;;;;5017843;28;20630;-60
2024/01/31 05:43:43;;;;;;;3.20;2.67;;;;;;;;;;5026639;28;20228;-60
2024/01/31 05:46:09;;;;;;;6.23;3.40;;;;;;;;;;5021201;28;20224;-62
2024/01/31 05:48:35;;;;;;;3.77;2.70;;;;;;;;;;5022333;28;20653;-62
2024/01/31 05:51:01;;;;;;;3.37;2.50;;;;;;;;;;5016495;28;20236;-61
2024/01/31 05:53:27;;;;;;;3.90;2.97;;;;;;;;;;5019141;28;20175;-61
2024/01/31 05:55:53;;;;;;;3.93;2.77;;;;;;;;;;5021655;28;20641;-60
2024/01/31 05:58:19;;;;;;;2.73;2.40;;;;;;;;;;5021470;28;20205;-59
2024/01/31 06:00:48;;;;;;;4.47;2.63;;;;;;;;;;5016713;28;20571;-61
2024/01/31 06:03:15;;;;;;;3.77;2.50;;;;;;;;;;5014456;28;20602;-60
2024/01/31 06:05:41;;;;;;;6.80;2.50;;;;;;;;;;5016734;28;20209;-60
2024/01/31 06:08:07;;;;;;;2.50;2.30;;;;;;;;;;5019326;28;20183;-62
2024/01/31 06:10:33;;;;;;;2.73;2.23;;;;;;;;;;5016793;28;20182;-60
2024/01/31 06:12:59;;;;;;;7.83;3.20;;;;;;;;;;5017198;28;20189;-57
2024/01/31 06:15:25;;;;;;;4.83;2.97;;;;;;;;;;5023192;28;20178;-59
2024/01/31 06:17:51;;;;;;;3.23;2.70;;;;;;;;;;5017604;28;20258;-57
2024/01/31 06:20:19;;;;;;;3.07;2.77;;;;;;;;;;5020308;28;20273;-58
2024/01/31 06:22:45;;;;;;;2.60;2.40;;;;;;;;;;5024697;28;20316;-58
2024/01/31 06:25:11;;;;;;;2.93;2.40;;;;;;;;;;5014609;28;20182;-59
2024/01/31 06:27:37;;;;;;;3.70;2.97;;;;;;;;;;5018459;28;20185;-58
2024/01/31 06:30:04;;;;;;;4.17;3.13;;;;;;;;;;5016802;28;20194;-59
2024/01/31 06:32:33;;;;;;;3.13;2.33;;;;;;;;;;5024078;28;20181;-58
2024/01/31 06:34:59;;;;;;;5.47;3.00;;;;;;;;;;5020424;28;20274;-56
2024/01/31 06:37:26;;;;;;;3.97;2.80;;;;;;;;;;5000510;28;20193;-58
2024/01/31 06:39:52;;;;;;;3.97;2.63;;;;;;;;;;5012692;28;20177;-58
2024/01/31 06:42:18;;;;;;;7.03;3.20;;;;;;;;;;5013099;28;20202;-59
2024/01/31 06:44:44;;;;;;;4.13;2.60;;;;;;;;;;5022294;28;20177;-52
2024/01/31 06:47:10;;;;;;;3.30;2.63;;;;;;;;;;5021045;28;20702;-52
2024/01/31 06:49:36;;;;;;;4.80;3.40;;;;;;;;;;5021565;28;20177;-52
2024/01/31 06:52:02;;;;;;;3.90;3.50;;;;;;;;;;5019505;28;20213;-52
2024/01/31 06:54:28;;;;;;;4.23;2.70;;;;;;;;;;5019772;28;20239;-53
2024/01/31 06:56:54;;;;;;;6.27;3.70;;;;;;;;;;5020081;28;20594;-52
2024/01/31 06:59:21;;;;;;;5.87;3.20;;;;;;;;;;5022289;28;20182;-52
2024/01/31 07:01:47;;;;;;;4.87;3.20;;;;;;;;;;5019422;28;20165;-53
2024/01/31 07:04:13;;;;;;;6.07;3.47;;;;;;;;;;5023020;28;20668;-52
2024/01/31 07:06:39;;;;;;;5.20;3.27;;;;;;;;;;5022326;28;20300;-52
2024/01/31 07:09:05;;;;;;;3.43;3.00;;;;;;;;;;5017848;28;20673;-52
2024/01/31 07:11:32;;;;;;;3.47;3.13;;;;;;;;;;5015814;28;20228;-52
2024/01/31 07:13:57;;;;;;;3.53;3.03;;;;;;;;;;5014965;28;20205;-52
2024/01/31 07:16:23;;;;;;;5.00;3.20;;;;;;;;;;5028401;28;20236;-54
2024/01/31 07:18:50;;;;;;;3.67;3.23;;;;;;;;;;5026496;28;20175;-52
2024/01/31 07:21:26;;;;;;;3.23;2.93;;;;;;;;;;5018892;28;20588;-52
2024/01/31 07:23:52;;;;;;;4.67;3.23;;;;;;;;;;5013853;28;20170;-52
2024/01/31 07:26:23;;;;;;;3.17;2.73;;;;;;;;;;5029659;28;20624;-52
2024/01/31 07:28:49;;;;;;;4.53;2.83;;;;;;;;;;5032610;28;20181;-52
2024/01/31 07:31:15;;;;;;;4.00;3.10;;;;;;;;;;5024218;28;20182;-52
2024/01/31 07:33:41;;;;;;;4.43;2.90;;;;;;;;;;5032034;28;20259;-52
2024/01/31 07:36:07;;;;;;;3.53;2.90;;;;;;;;;;5032517;28;20166;-52
2024/01/31 07:38:33;;;;;;;3.57;2.93;;;;;;;;;;5024271;28;20186;-52
2024/01/31 07:40:59;;;;;;;5.43;3.13;;;;;;;;;;5015568;28;20209;-52
2024/01/31 07:43:26;;;;;;;3.50;3.07;;;;;;;;;;5024443;28;20217;-53
2024/01/31 07:45:52;;;;;;;4.93;3.50;;;;;;;;;;5032224;28;20169;-53
2024/01/31 07:48:19;;;;;;;3.87;3.23;;;;;;;;;;5031400;28;20244;-52
2024/01/31 07:50:45;;;;;;;4.03;3.27;;;;;;;;;;5023701;28;20261;-52
2024/01/31 07:53:11;;;;;;;5.43;3.07;;;;;;;;;;5023729;28;20269;-50
2024/01/31 07:55:37;;;;;;;4.90;3.30;;;;;;;;;;5030965;28;20178;-50
2024/01/31 07:58:04;;;;;;;4.53;3.63;;;;;;;;;;5031855;28;20201;-49
2024/01/31 08:00:30;;;;;;;4.43;3.20;;;;;;;;;;5030618;28;20255;-51
2024/01/31 08:02:56;;;;;;;5.07;3.20;;;;;;;;;;5017167;28;20642;-50
2024/01/31 08:05:22;;;;;;;4.07;3.13;;;;;;;;;;5011970;28;20186;-50
2024/01/31 08:07:48;;;;;;;5.47;3.13;;;;;;;;;;5029668;28;20178;-49
2024/01/31 08:10:14;;;;;;;4.47;3.17;;;;;;;;;;5030955;28;20181;-50
2024/01/31 08:12:41;;;;;;;5.73;2.90;;;;;;;;;;5030461;28;20633;-50
2024/01/31 08:15:08;;;;;;;4.20;2.77;;;;;;;;;;5031017;28;20622;-50
2024/01/31 08:17:34;;;;;;;4.77;3.40;;;;;;;;;;5031950;28;20251;-49
2024/01/31 08:20:00;;;;;;;4.57;2.97;;;;;;;;;;5031679;28;20200;-49
2024/01/31 08:22:26;;;;;;;5.83;3.23;;;;;;;;;;5031339;28;20617;-52
2024/01/31 08:24:52;;;;;;;3.97;3.27;;;;;;;;;;5027655;28;20170;-49
2024/01/31 08:27:18;;;;;;;5.13;3.17;;;;;;;;;;5028240;28;20189;-49
2024/01/31 08:29:44;;;;;;;4.33;3.10;;;;;;;;;;5031069;28;20186;-48
2024/01/31 08:32:10;;;;;;;5.40;3.10;;;;;;;;;;5031516;28;20177;-51
2024/01/31 08:34:36;;;;;;;3.30;2.90;;;;;;;;;;5030130;28;20185;-49
2024/01/31 08:37:02;;;;;;;5.20;4.00;;;;;;;;;;5023443;28;20201;-49
2024/01/31 08:39:32;;;;;;;4.93;3.10;;;;;;;;;;5016774;28;20194;-49
2024/01/31 08:41:58;;;;;;;6.40;3.47;;;;;;;;;;5030747;28;20255;-50
2024/01/31 08:44:24;;;;;;;5.23;4.00;;;;;;;;;;5024402;28;20167;-51
2024/01/31 08:46:50;;;;;;;4.70;3.57;;;;;;;;;;5018473;28;20257;-50
2024/01/31 08:49:16;;;;;;;5.27;3.00;;;;;;;;;;5031120;28;20197;-51
2024/01/31 08:51:42;;;;;;;4.80;3.70;;;;;;;;;;5029405;28;20178;-50
2024/01/31 08:54:08;;;;;;;4.67;3.27;;;;;;;;;;5029469;28;20398;-49
2024/01/31 08:56:34;;;;;;;4.07;3.17;;;;;;;;;;5027861;28;20216;-50
2024/01/31 08:59:00;;;;;;;3.80;3.07;;;;;;;;;;5030962;28;20224;-49
2024/01/31 09:01:26;;;;;;;5.97;3.70;;;;;;;;;;5031241;28;20166;-50
2024/01/31 09:03:53;;;;;;;4.93;3.27;;;;;;;;;;5030106;28;20193;-53
2024/01/31 09:06:20;;;;;;;7.80;3.30;;;;;;;;;;5018866;28;20186;-54
2024/01/31 09:08:46;;;;;;;4.47;3.47;;;;;;;;;;5030001;28;20629;-53
2024/01/31 09:11:12;;;;;;;4.27;3.10;;;;;;;;;;5030085;28;20261;-53
2024/01/31 09:13:38;;;;;;;4.20;3.67;;;;;;;;;;5024379;28;20191;-53
2024/01/31 09:16:04;;;;;;;2.97;2.67;;;;;;;;;;5013828;28;20582;-53
2024/01/31 09:18:30;;;;;;;7.73;3.53;;;;;;;;;;5030611;28;20177;-53
2024/01/31 09:20:56;;;;;;;3.70;3.40;;;;;;;;;;5029814;28;20182;-53
2024/01/31 09:23:22;;;;;;;3.77;3.37;;;;;;;;;;5012269;28;20190;-54
2024/01/31 09:25:53;;;;;;;5.87;3.40;;;;;;;;;;5030841;28;20177;-53
2024/01/31 09:28:20;;;;;;;4.13;2.67;;;;;;;;;;5029431;28;20216;-53
2024/01/31 09:30:46;;;;;;;7.20;3.93;;;;;;;;;;5025282;28;20253;-53
2024/01/31 09:33:12;;;;;;;5.27;3.60;;;;;;;;;;5024427;28;20182;-53
2024/01/31 09:35:39;;;;;;;3.93;3.27;;;;;;;;;;5020222;28;20642;-53
2024/01/31 09:38:05;;;;;;;6.33;3.90;;;;;;;;;;5012767;28;20210;-53
2024/01/31 09:40:31;;;;;;;3.70;3.33;;;;;;;;;;5020614;28;20610;-54
2024/01/31 09:42:57;;;;;;;4.03;3.13;;;;;;;;;;5019586;28;20199;-53
2024/01/31 09:45:27;;;;;;;5.97;3.70;;;;;;;;;;5017034;28;20256;-53
2024/01/31 09:47:57;;;;;;;5.87;3.50;;;;;;;;;;5029378;28;20221;-53
2024/01/31 09:50:23;;;;;;;4.37;3.20;;;;;;;;;;5021599;28;20269;-53
2024/01/31 09:52:55;;;;;;;4.43;3.43;;;;;;;;;;5026131;28;20178;-53
2024/01/31 09:55:23;;;;;;;3.50;3.10;;;;;;;;;;5024032;28;20178;-53
2024/01/31 09:57:49;;;;;;;4.07;3.27;;;;;;;;;;5027672;28;20267;-53
2024/01/31 10:00:17;;;;;;;4.27;3.30;;;;;;;;;;5029720;28;20164;-53
2024/01/31 10:02:44;;;;;;;5.77;3.70;;;;;;;;;;5018790;28;20517;-53
2024/01/31 10:05:10;;;;;;;4.40;3.13;;;;;;;;;;5013146;28;20182;-53
2024/01/31 10:07:39;;;;;;;5.00;3.37;;;;;;;;;;5009521;28;20198;-53
2024/01/31 10:10:06;;;;;;;4.70;3.47;;;;;;;;;;5009103;28;20166;-53
2024/01/31 10:12:32;;;;;;;5.73;3.93;;;;;;;;;;5025082;28;20202;-53
2024/01/31 10:14:58;;;;;;;5.60;3.70;;;;;;;;;;5028827;28;20204;-49
2024/01/31 10:17:24;;;;;;;5.73;3.87;;;;;;;;;;5029161;28;20201;-51
2024/01/31 10:19:50;;;;;;;6.77;4.23;;;;;;;;;;5028870;28;20256;-51
2024/01/31 10:22:16;;;;;;;4.77;3.50;;;;;;;;;;5014879;28;20601;-51
2024/01/31 10:24:51;;;;;;;4.23;3.47;;;;;;;;;;5010512;28;20193;-51
2024/01/31 10:27:21;;;;;;;4.97;3.70;;;;;;;;;;5016980;28;20217;-50
2024/01/31 10:29:50;;;;;;;4.27;3.50;;;;;;;;;;5010782;28;20471;-52
2024/01/31 10:32:16;;;;;;;11.53;4.13;;;;;;;;;;5010921;28;20538;-50
2024/01/31 10:34:43;;;;;;;5.17;4.67;;;;;;;;;;5017400;28;20317;-50
2024/01/31 10:37:11;;;;;;;4.77;3.53;;;;;;;;;;5017537;28;20296;-51
2024/01/31 10:39:38;;;;;;;6.63;3.97;;;;;;;;;;5008678;28;20173;-51
2024/01/31 10:42:05;;;;;;;7.07;4.30;;;;;;;;;;5009324;28;20249;-51
2024/01/31 10:44:32;;;;;;;6.00;4.67;;;;;;;;;;5012762;28;20181;-50
2024/01/31 10:46:58;;;;;;;6.30;4.57;;;;;;;;;;5012870;28;20230;-50
2024/01/31 10:49:24;;;;;;;7.53;4.63;;;;;;;;;;4998908;28;20190;-49
2024/01/31 10:51:51;;;;;;;8.63;4.93;;;;;;;;;;5009367;28;20208;-49
2024/01/31 10:54:18;;;;;;;6.43;4.90;;;;;;;;;;5007826;28;20245;-50
2024/01/31 10:56:45;;;;;;;7.63;4.67;;;;;;;;;;5005643;28;20227;-51
2024/01/31 10:59:12;;;;;;;7.00;5.23;;;;;;;;;;4989481;28;20642;-50
2024/01/31 11:01:38;;;;;;;7.77;5.03;;;;;;;;;;4991170;28;20194;-54
2024/01/31 11:04:08;;;;;;;6.73;5.13;;;;;;;;;;5007498;28;20213;-49
2024/01/31 11:06:40;;;;;;;8.73;5.70;;;;;;;;;;5005647;28;20273;-49
2024/01/31 11:09:06;;;;;;;8.00;4.90;;;;;;;;;;4988706;28;20591;-49
2024/01/31 11:11:33;;;;;;;10.07;5.60;;;;;;;;;;4989549;28;20179;-50
2024/01/31 11:14:09;;;;;;;7.57;5.70;;;;;;;;;;4993394;28;20201;-51
2024/01/31 11:16:35;;;;;;;7.07;5.47;;;;;;;;;;5007216;28;20194;-49
2024/01/31 11:19:05;;;;;;;8.07;5.47;;;;;;;;;;4999442;28;20269;-50
2024/01/31 11:21:40;;;;;;;8.40;6.03;;;;;;;;;;5008399;28;20270;-49
2024/01/31 11:24:06;;;;;;;8.60;6.00;;;;;;;;;;5007776;28;20483;-49
2024/01/31 11:26:36;;;;;;;6.85;5.25;;;;;;;;;;5008798;28;20921;-50
2024/01/31 11:29:03;;;;;;;7.87;6.37;;;;;;;;;;4997939;28;20398;-49
2024/01/31 11:31:30;;;;;;;12.40;7.47;;;;;;;;;;5009235;28;20170;-50
2024/01/31 11:33:57;;;;;;;10.57;6.70;;;;;;;;;;5008098;28;20186;-52
2024/01/31 11:36:24;;;;;;;8.85;6.75;;;;;;;;;;5008626;28;20228;-50
2024/01/31 11:38:50;;;;;;;10.93;6.67;;;;;;;;;;5008296;28;20614;-51
2024/01/31 11:41:16;;;;;;;10.53;6.07;;;;;;;;;;5001810;28;20261;-49
2024/01/31 11:43:42;;;;;;;9.07;6.20;;;;;;;;;;4989685;28;20623;-50
2024/01/31 11:46:08;;;;;;;7.83;6.33;;;;;;;;;;5001770;28;20199;-50
2024/01/31 11:48:35;;;;;;;11.77;7.77;;;;;;;;;;5018193;28;20260;-50
2024/01/31 11:51:03;;;;;;;9.87;7.03;;;;;;;;;;5018158;28;20182;-52
2024/01/31 11:53:29;;;;;;;10.17;6.93;;;;;;;;;;5021953;28;20594;-49
2024/01/31 11:55:55;;;;;;;11.00;7.13;;;;;;;;;;5020989;28;20253;-50
2024/01/31 11:58:21;;;;;;;9.27;6.63;;;;;;;;;;5017507;28;20210;-49
2024/01/31 12:00:48;;;;;;;11.20;7.00;;;;;;;;;;5008522;28;20236;-51
2024/01/31 12:03:14;;;;;;;9.80;6.63;;;;;;;;;;5018462;28;20225;-50
2024/01/31 12:05:40;;;;;;;8.13;6.10;;;;;;;;;;5023226;28;20269;-49
2024/01/31 12:08:06;;;;;;;8.37;6.50;;;;;;;;;;5029236;28;20284;-50
2024/01/31 12:10:32;;;;;;;9.20;6.77;;;;;;;;;;5028875;28;20591;-50
2024/01/31 12:13:00;;;;;;;9.53;6.93;;;;;;;;;;5029948;28;20190;-49
2024/01/31 12:15:26;;;;;;;9.37;7.07;;;;;;;;;;5029617;28;20296;-49
2024/01/31 12:17:53;;;;;;;10.03;7.90;;;;;;;;;;5021832;28;20217;-50
2024/01/31 12:20:20;;;;;;;10.67;7.50;;;;;;;;;;5026538;28;20209;-51
2024/01/31 12:22:46;;;;;;;10.97;7.87;;;;;;;;;;5031220;28;20178;-50
2024/01/31 12:25:13;;;;;;;11.47;8.47;;;;;;;;;;5027725;28;20193;-49
2024/01/31 12:27:39;;;;;;;10.67;7.87;;;;;;;;;;5029985;28;20334;-49
2024/01/31 12:30:05;;;;;;;11.60;8.40;;;;;;;;;;5023513;28;20638;-50
2024/01/31 12:32:31;;;;;;;12.10;9.20;;;;;;;;;;5021467;28;20193;-49
2024/01/31 12:34:57;;;;;;;12.03;8.53;;;;;;;;;;5023225;28;20239;-50
2024/01/31 12:37:23;;;;;;;9.13;7.60;;;;;;;;;;5022455;28;20232;-49
2024/01/31 12:39:49;;;;;;;10.63;8.80;;;;;;;;;;5026931;28;20186;-50
2024/01/31 12:42:15;;;;;;;13.50;9.40;;;;;;;;;;5028683;28;20209;-50
2024/01/31 12:44:42;;;;;;;12.30;8.30;;;;;;;;;;5024934;28;20587;-49
2024/01/31 12:47:09;;;;;;;11.10;8.43;;;;;;;;;;5029356;28;20237;-53
2024/01/31 12:49:40;;;;;;;14.40;9.37;;;;;;;;;;5027093;28;20174;-50
2024/01/31 12:52:08;;;;;;;14.23;9.83;;;;;;;;;;5025904;28;20536;-50
2024/01/31 12:54:34;;;;;;;11.43;8.93;;;;;;;;;;5018982;28;20178;-50
2024/01/31 12:57:00;;;;;;;11.40;8.77;;;;;;;;;;5026673;28;20490;-50
2024/01/31 12:59:27;;;;;;;12.60;9.63;;;;;;;;;;5022625;28;20610;-50
2024/01/31 13:01:53;;;;;;;14.43;8.20;;;;;;;;;;5029849;28;20593;-50
2024/01/31 13:04:21;;;;;;;13.70;8.93;;;;;;;;;;5020966;28;20261;-50
2024/01/31 13:06:47;;;;;;;14.50;10.27;;;;;;;;;;5025988;28;20181;-50
2024/01/31 13:09:14;;;;;;;13.20;9.60;;;;;;;;;;5027988;28;20182;-50
2024/01/31 13:11:40;;;;;;;11.23;8.33;;;;;;;;;;5023851;28;20276;-50
2024/01/31 13:14:07;;;;;;;12.97;9.17;;;;;;;;;;5018376;28;20668;-49
2024/01/31 13:16:33;;;;;;;11.23;8.83;;;;;;;;;;5028262;28;20259;-49
2024/01/31 13:19:00;;;;;;;10.77;8.83;;;;;;;;;;5027471;28;20182;-49
2024/01/31 13:21:26;;;;;;;10.87;8.43;;;;;;;;;;5024345;28;20453;-49
2024/01/31 13:23:55;;;;;;;13.97;9.27;;;;;;;;;;5022927;28;20613;-53
2024/01/31 13:26:21;;;;;;;11.07;8.30;;;;;;;;;;5030796;28;20632;-49
2024/01/31 13:28:47;;;;;;;9.90;7.90;;;;;;;;;;5028855;28;20170;-48
2024/01/31 13:31:13;;;;;;;9.77;7.73;;;;;;;;;;5023583;28;20173;-49
2024/01/31 13:33:39;;;;;;;9.07;8.00;;;;;;;;;;5022896;28;20546;-49
2024/01/31 13:36:06;;;;;;;10.43;8.50;;;;;;;;;;5016931;28;20179;-50
2024/01/31 13:38:32;;;;;;;10.73;8.33;;;;;;;;;;5017172;28;20210;-49
2024/01/31 13:40:58;;;;;;;10.37;8.37;;;;;;;;;;5012813;28;20209;-50
2024/01/31 13:43:24;;;;;;;10.90;7.57;;;;;;;;;;5014605;28;20768;-56
2024/01/31 13:45:50;;;;;;;9.70;8.10;;;;;;;;;;5012234;28;20188;-57
2024/01/31 13:48:16;;;;;;;9.63;7.73;;;;;;;;;;5021685;28;20716;-55
2024/01/31 13:50:42;;;;;;;8.80;7.60;;;;;;;;;;5019136;28;20210;-57
2024/01/31 13:53:08;;;;;;;8.00;7.20;;;;;;;;;;5018265;28;20676;-58
2024/01/31 13:55:34;;;;;;;8.67;7.50;;;;;;;;;;5029836;28;20582;-57
2024/01/31 13:58:00;;;;;;;8.80;7.87;;;;;;;;;;5027832;28;20228;-58
2024/01/31 14:00:26;;;;;;;9.27;7.60;;;;;;;;;;5011148;28;20491;-56
2024/01/31 14:02:52;;;;;;;7.33;6.63;;;;;;;;;;5009610;28;20159;-54
2024/01/31 14:05:18;;;;;;;8.70;7.80;;;;;;;;;;5012124;28;20174;-58
2024/01/31 14:07:44;;;;;;;8.40;7.60;;;;;;;;;;5009917;28;20243;-58
2024/01/31 14:10:10;;;;;;;9.90;7.10;;;;;;;;;;5010174;28;20194;-59
2024/01/31 14:12:37;;;;;;;8.00;6.93;;;;;;;;;;5009688;28;20196;-56
2024/01/31 14:15:03;;;;;;;8.03;6.83;;;;;;;;;;5013162;28;20185;-59
2024/01/31 14:17:29;;;;;;;7.63;6.80;;;;;;;;;;5014344;28;20207;-57
2024/01/31 14:19:55;;;;;;;8.10;6.63;;;;;;;;;;5015746;28;20205;-59
2024/01/31 14:22:21;;;;;;;7.73;6.70;;;;;;;;;;5017108;28;20209;-57
2024/01/31 14:24:47;;;;;;;8.63;7.83;;;;;;;;;;5012153;28;20642;-59
2024/01/31 14:27:13;;;;;;;7.30;6.47;;;;;;;;;;5013267;28;20175;-57
2024/01/31 14:29:39;;;;;;;7.70;6.90;;;;;;;;;;5023019;28;20657;-58
2024/01/31 14:32:07;;;;;;;7.23;5.50;;;;;;;;;;5027089;28;20212;-55
2024/01/31 14:34:33;;;;;;;9.00;5.20;;;;;;;;;;5013940;28;20193;-57
2024/01/31 14:36:59;;;;;;;6.10;4.50;;;;;;;;;;5018613;28;20202;-58